sensor_id;sensor_type;location;lat;lon;timestamp;temperature;humidity
19007;DHT22;9636;47.382;8.480;2023-09-08T00:00:58;26.30;96.60
19007;DHT22;9636;47.382;8.480;2023-09-08T00:03:26;26.30;96.70
19007;DHT22;9636;47.382;8.480;2023-09-08T00:05:53;26.30;96.70
19007;DHT22;9636;47.382;8.480;2023-09-08T00:08:19;26.30;96.70
19007;DHT22;9636;47.382;8.480;2023-09-08T00:10:47;26.30;96.70
19007;DHT22;9636;47.382;8.480;2023-09-08T00:13:14;26.30;96.80
19007;DHT22;9636;47.382;8.480;2023-09-08T00:15:40;26.20;96.70
19007;DHT22;9636;47.382;8.480;2023-09-08T00:18:07;26.20;96.70
19007;DHT22;9636;47.382;8.480;2023-09-08T00:20:35;26.20;96.80
19007;DHT22;9636;47.382;8.480;2023-09-08T00:23:03;26.10;96.70
19007;DHT22;9636;47.382;8.480;2023-09-08T00:25:30;26.10;96.80
19007;DHT22;9636;47.382;8.480;2023-09-08T00:27:57;26.10;96.80
19007;DHT22;9636;47.382;8.480;2023-09-08T00:30:24;26.10;96.80
19007;DHT22;9636;47.382;8.480;2023-09-08T00:32:50;26.10;96.80
19007;DHT22;9636;47.382;8.480;2023-09-08T00:35:17;26.00;96.80
19007;DHT22;9636;47.382;8.480;2023-09-08T00:37:46;26.00;96.80
19007;DHT22;9636;47.382;8.480;2023-09-08T00:40:13;26.00;96.80
19007;DHT22;9636;47.382;8.480;2023-09-08T00:42:40;26.00;96.80
19007;DHT22;9636;47.382;8.480;2023-09-08T00:45:07;25.90;96.80
19007;DHT22;9636;47.382;8.480;2023-09-08T00:47:34;25.90;96.80
19007;DHT22;9636;47.382;8.480;2023-09-08T00:50:02;25.90;96.80
19007;DHT22;9636;47.382;8.480;2023-09-08T00:52:28;25.90;96.90
19007;DHT22;9636;47.382;8.480;2023-09-08T00:55:00;25.90;96.90
19007;DHT22;9636;47.382;8.480;2023-09-08T00:57:27;25.90;96.90
19007;DHT22;9636;47.382;8.480;2023-09-08T00:59:54;25.90;96.90
19007;DHT22;9636;47.382;8.480;2023-09-08T01:02:21;25.80;96.90
19007;DHT22;9636;47.382;8.480;2023-09-08T01:04:49;25.80;96.90
19007;DHT22;9636;47.382;8.480;2023-09-08T01:07:16;25.80;96.90
19007;DHT22;9636;47.382;8.480;2023-09-08T01:09:45;25.80;96.90
19007;DHT22;9636;47.382;8.480;2023-09-08T01:12:14;25.80;96.90
19007;DHT22;9636;47.382;8.480;2023-09-08T01:14:41;25.70;96.90
19007;DHT22;9636;47.382;8.480;2023-09-08T01:17:08;25.70;96.90
19007;DHT22;9636;47.382;8.480;2023-09-08T01:19:35;25.70;96.90
19007;DHT22;9636;47.382;8.480;2023-09-08T01:25:17;25.60;96.90
19007;DHT22;9636;47.382;8.480;2023-09-08T01:27:47;25.60;97.00
19007;DHT22;9636;47.382;8.480;2023-09-08T01:30:15;25.60;97.00
19007;DHT22;9636;47.382;8.480;2023-09-08T01:32:43;25.60;97.00
19007;DHT22;9636;47.382;8.480;2023-09-08T01:35:11;25.50;97.00
19007;DHT22;9636;47.382;8.480;2023-09-08T01:37:40;25.50;97.20
19007;DHT22;9636;47.382;8.480;2023-09-08T01:40:08;25.50;97.00
19007;DHT22;9636;47.382;8.480;2023-09-08T01:42:37;25.50;97.00
19007;DHT22;9636;47.382;8.480;2023-09-08T01:45:04;25.40;97.00
19007;DHT22;9636;47.382;8.480;2023-09-08T01:47:31;25.40;97.00
19007;DHT22;9636;47.382;8.480;2023-09-08T01:49:58;25.40;97.00
19007;DHT22;9636;47.382;8.480;2023-09-08T01:52:25;25.40;97.00
19007;DHT22;9636;47.382;8.480;2023-09-08T01:54:52;25.40;97.00
19007;DHT22;9636;47.382;8.480;2023-09-08T01:57:19;25.40;97.00
19007;DHT22;9636;47.382;8.480;2023-09-08T01:59:47;25.40;97.00
19007;DHT22;9636;47.382;8.480;2023-09-08T02:02:14;25.30;97.00
19007;DHT22;9636;47.382;8.480;2023-09-08T02:04:41;25.30;97.00
19007;DHT22;9636;47.382;8.480;2023-09-08T02:07:08;25.30;97.10
19007;DHT22;9636;47.382;8.480;2023-09-08T02:09:36;25.30;97.00
19007;DHT22;9636;47.382;8.480;2023-09-08T02:12:03;25.30;97.00
19007;DHT22;9636;47.382;8.480;2023-09-08T02:14:30;25.20;97.00
19007;DHT22;9636;47.382;8.480;2023-09-08T02:16:58;25.20;97.00
19007;DHT22;9636;47.382;8.480;2023-09-08T02:19:25;25.20;97.00
19007;DHT22;9636;47.382;8.480;2023-09-08T02:21:52;25.20;97.00
19007;DHT22;9636;47.382;8.480;2023-09-08T02:24:19;25.20;97.00
19007;DHT22;9636;47.382;8.480;2023-09-08T02:26:46;25.20;97.10
19007;DHT22;9636;47.382;8.480;2023-09-08T02:29:12;25.10;97.00
19007;DHT22;9636;47.382;8.480;2023-09-08T02:31:40;25.10;97.10
19007;DHT22;9636;47.382;8.480;2023-09-08T02:34:08;25.10;97.10
19007;DHT22;9636;47.382;8.480;2023-09-08T02:36:34;25.10;97.10
19007;DHT22;9636;47.382;8.480;2023-09-08T02:39:01;25.10;97.10
19007;DHT22;9636;47.382;8.480;2023-09-08T02:41:28;25.00;97.10
19007;DHT22;9636;47.382;8.480;2023-09-08T02:43:55;25.00;97.10
19007;DHT22;9636;47.382;8.480;2023-09-08T02:46:22;25.00;97.10
19007;DHT22;9636;47.382;8.480;2023-09-08T02:48:49;25.00;97.10
19007;DHT22;9636;47.382;8.480;2023-09-08T02:51:17;25.00;97.20
19007;DHT22;9636;47.382;8.480;2023-09-08T02:53:43;25.00;97.20
19007;DHT22;9636;47.382;8.480;2023-09-08T02:56:10;24.90;97.10
19007;DHT22;9636;47.382;8.480;2023-09-08T02:58:37;24.90;97.10
19007;DHT22;9636;47.382;8.480;2023-09-08T03:01:11;24.90;97.10
19007;DHT22;9636;47.382;8.480;2023-09-08T03:03:39;24.90;97.20
19007;DHT22;9636;47.382;8.480;2023-09-08T03:06:05;24.80;97.20
19007;DHT22;9636;47.382;8.480;2023-09-08T03:08:34;24.80;97.20
19007;DHT22;9636;47.382;8.480;2023-09-08T03:11:02;24.80;97.20
19007;DHT22;9636;47.382;8.480;2023-09-08T03:13:29;24.80;97.20
19007;DHT22;9636;47.382;8.480;2023-09-08T03:15:56;24.80;97.20
19007;DHT22;9636;47.382;8.480;2023-09-08T03:18:23;24.80;97.20
19007;DHT22;9636;47.382;8.480;2023-09-08T03:20:50;24.80;97.20
19007;DHT22;9636;47.382;8.480;2023-09-08T03:23:17;24.80;97.20
19007;DHT22;9636;47.382;8.480;2023-09-08T03:25:45;24.70;97.20
19007;DHT22;9636;47.382;8.480;2023-09-08T03:28:14;24.70;97.20
19007;DHT22;9636;47.382;8.480;2023-09-08T03:30:41;24.70;97.20
19007;DHT22;9636;47.382;8.480;2023-09-08T03:33:08;24.60;97.20
19007;DHT22;9636;47.382;8.480;2023-09-08T03:35:34;24.60;97.20
19007;DHT22;9636;47.382;8.480;2023-09-08T03:38:01;24.60;97.20
19007;DHT22;9636;47.382;8.480;2023-09-08T03:40:28;24.60;97.20
19007;DHT22;9636;47.382;8.480;2023-09-08T03:42:56;24.60;97.20
19007;DHT22;9636;47.382;8.480;2023-09-08T03:45:23;24.60;97.20
19007;DHT22;9636;47.382;8.480;2023-09-08T03:47:50;24.60;97.20
19007;DHT22;9636;47.382;8.480;2023-09-08T03:50:16;24.50;97.60
19007;DHT22;9636;47.382;8.480;2023-09-08T03:52:43;24.50;97.20
19007;DHT22;9636;47.382;8.480;2023-09-08T03:55:10;24.50;97.30
19007;DHT22;9636;47.382;8.480;2023-09-08T03:57:37;24.50;97.30
19007;DHT22;9636;47.382;8.480;2023-09-08T04:00:07;24.40;97.30
19007;DHT22;9636;47.382;8.480;2023-09-08T04:02:35;24.50;97.30
19007;DHT22;9636;47.382;8.480;2023-09-08T04:05:03;24.40;97.30
19007;DHT22;9636;47.382;8.480;2023-09-08T04:07:29;24.40;97.30
19007;DHT22;9636;47.382;8.480;2023-09-08T04:09:56;24.40;97.30
19007;DHT22;9636;47.382;8.480;2023-09-08T04:12:23;24.40;97.30
19007;DHT22;9636;47.382;8.480;2023-09-08T04:14:50;24.40;97.30
19007;DHT22;9636;47.382;8.480;2023-09-08T04:17:18;24.40;97.30
19007;DHT22;9636;47.382;8.480;2023-09-08T04:19:45;24.30;97.30
19007;DHT22;9636;47.382;8.480;2023-09-08T04:22:11;24.30;97.30
19007;DHT22;9636;47.382;8.480;2023-09-08T04:24:38;24.30;97.30
19007;DHT22;9636;47.382;8.480;2023-09-08T04:27:05;24.30;97.30
19007;DHT22;9636;47.382;8.480;2023-09-08T04:29:34;24.30;97.30
19007;DHT22;9636;47.382;8.480;2023-09-08T04:32:01;24.30;97.30
19007;DHT22;9636;47.382;8.480;2023-09-08T04:34:36;24.30;97.30
19007;DHT22;9636;47.382;8.480;2023-09-08T04:37:03;24.20;97.30
19007;DHT22;9636;47.382;8.480;2023-09-08T04:39:30;24.20;97.30
19007;DHT22;9636;47.382;8.480;2023-09-08T04:41:57;24.20;97.40
19007;DHT22;9636;47.382;8.480;2023-09-08T04:44:23;24.20;97.30
19007;DHT22;9636;47.382;8.480;2023-09-08T04:46:51;24.20;97.40
19007;DHT22;9636;47.382;8.480;2023-09-08T04:49:18;24.10;97.30
19007;DHT22;9636;47.382;8.480;2023-09-08T04:51:46;24.10;97.30
19007;DHT22;9636;47.382;8.480;2023-09-08T04:54:13;24.10;97.30
19007;DHT22;9636;47.382;8.480;2023-09-08T04:56:39;24.10;97.30
19007;DHT22;9636;47.382;8.480;2023-09-08T04:59:06;24.10;97.30
19007;DHT22;9636;47.382;8.480;2023-09-08T05:01:33;24.10;97.30
19007;DHT22;9636;47.382;8.480;2023-09-08T05:04:03;24.10;97.30
19007;DHT22;9636;47.382;8.480;2023-09-08T05:06:29;24.00;97.30
19007;DHT22;9636;47.382;8.480;2023-09-08T05:08:58;24.10;97.40
19007;DHT22;9636;47.382;8.480;2023-09-08T05:11:25;24.10;97.30
19007;DHT22;9636;47.382;8.480;2023-09-08T05:13:51;24.00;97.30
19007;DHT22;9636;47.382;8.480;2023-09-08T05:16:18;24.00;97.30
19007;DHT22;9636;47.382;8.480;2023-09-08T05:18:51;24.00;97.30
19007;DHT22;9636;47.382;8.480;2023-09-08T05:21:18;24.00;97.30
19007;DHT22;9636;47.382;8.480;2023-09-08T05:23:45;24.00;97.30
19007;DHT22;9636;47.382;8.480;2023-09-08T05:26:13;24.00;97.30
19007;DHT22;9636;47.382;8.480;2023-09-08T05:28:40;24.00;97.30
19007;DHT22;9636;47.382;8.480;2023-09-08T05:31:07;24.10;97.30
19007;DHT22;9636;47.382;8.480;2023-09-08T05:33:34;24.10;97.30
19007;DHT22;9636;47.382;8.480;2023-09-08T05:36:00;24.10;97.60
19007;DHT22;9636;47.382;8.480;2023-09-08T05:38:27;24.10;97.20
19007;DHT22;9636;47.382;8.480;2023-09-08T05:40:54;24.20;97.20
19007;DHT22;9636;47.382;8.480;2023-09-08T05:43:24;24.30;97.10
19007;DHT22;9636;47.382;8.480;2023-09-08T05:45:51;24.30;97.10
19007;DHT22;9636;47.382;8.480;2023-09-08T05:48:18;24.30;97.00
19007;DHT22;9636;47.382;8.480;2023-09-08T05:50:45;24.40;97.00
19007;DHT22;9636;47.382;8.480;2023-09-08T05:53:11;24.40;96.90
19007;DHT22;9636;47.382;8.480;2023-09-08T05:55:38;24.50;96.80
19007;DHT22;9636;47.382;8.480;2023-09-08T05:58:05;24.60;96.80
19007;DHT22;9636;47.382;8.480;2023-09-08T06:00:34;24.70;96.70
19007;DHT22;9636;47.382;8.480;2023-09-08T06:03:01;24.80;96.60
19007;DHT22;9636;47.382;8.480;2023-09-08T06:05:28;24.90;96.50
19007;DHT22;9636;47.382;8.480;2023-09-08T06:07:54;25.00;96.40
19007;DHT22;9636;47.382;8.480;2023-09-08T06:10:21;25.00;96.40
19007;DHT22;9636;47.382;8.480;2023-09-08T06:12:48;25.20;96.30
19007;DHT22;9636;47.382;8.480;2023-09-08T06:15:16;25.30;96.20
19007;DHT22;9636;47.382;8.480;2023-09-08T06:17:44;25.40;96.10
19007;DHT22;9636;47.382;8.480;2023-09-08T06:20:12;25.50;96.10
19007;DHT22;9636;47.382;8.480;2023-09-08T06:22:39;25.60;96.00
19007;DHT22;9636;47.382;8.480;2023-09-08T06:25:06;25.70;95.90
19007;DHT22;9636;47.382;8.480;2023-09-08T06:27:33;25.80;95.80
19007;DHT22;9636;47.382;8.480;2023-09-08T06:30:00;26.00;95.70
19007;DHT22;9636;47.382;8.480;2023-09-08T06:32:27;26.10;95.60
19007;DHT22;9636;47.382;8.480;2023-09-08T06:34:55;26.20;95.60
19007;DHT22;9636;47.382;8.480;2023-09-08T06:37:22;26.30;95.60
19007;DHT22;9636;47.382;8.480;2023-09-08T06:39:48;26.30;95.60
19007;DHT22;9636;47.382;8.480;2023-09-08T06:42:15;26.40;95.60
19007;DHT22;9636;47.382;8.480;2023-09-08T06:44:42;26.60;95.60
19007;DHT22;9636;47.382;8.480;2023-09-08T06:47:09;26.70;95.50
19007;DHT22;9636;47.382;8.480;2023-09-08T06:49:35;26.70;95.40
19007;DHT22;9636;47.382;8.480;2023-09-08T06:52:04;26.80;95.40
19007;DHT22;9636;47.382;8.480;2023-09-08T06:54:31;26.80;95.40
19007;DHT22;9636;47.382;8.480;2023-09-08T06:56:59;26.90;95.30
19007;DHT22;9636;47.382;8.480;2023-09-08T06:59:26;26.90;95.20
19007;DHT22;9636;47.382;8.480;2023-09-08T07:01:52;27.00;95.10
19007;DHT22;9636;47.382;8.480;2023-09-08T07:04:19;27.10;95.10
19007;DHT22;9636;47.382;8.480;2023-09-08T07:06:46;27.20;95.00
19007;DHT22;9636;47.382;8.480;2023-09-08T07:09:14;27.30;94.90
19007;DHT22;9636;47.382;8.480;2023-09-08T07:11:41;27.40;94.80
19007;DHT22;9636;47.382;8.480;2023-09-08T07:14:08;27.50;94.70
19007;DHT22;9636;47.382;8.480;2023-09-08T07:16:34;27.60;94.60
19007;DHT22;9636;47.382;8.480;2023-09-08T07:19:01;27.70;94.50
19007;DHT22;9636;47.382;8.480;2023-09-08T07:21:28;27.70;94.40
19007;DHT22;9636;47.382;8.480;2023-09-08T07:23:55;27.80;94.30
19007;DHT22;9636;47.382;8.480;2023-09-08T07:26:23;27.90;94.20
19007;DHT22;9636;47.382;8.480;2023-09-08T07:28:50;28.00;94.20
19007;DHT22;9636;47.382;8.480;2023-09-08T07:31:16;28.10;94.10
19007;DHT22;9636;47.382;8.480;2023-09-08T07:33:43;28.10;94.00
19007;DHT22;9636;47.382;8.480;2023-09-08T07:36:10;28.20;93.90
19007;DHT22;9636;47.382;8.480;2023-09-08T07:38:37;28.30;93.90
19007;DHT22;9636;47.382;8.480;2023-09-08T07:41:04;28.40;93.80
19007;DHT22;9636;47.382;8.480;2023-09-08T07:43:32;28.50;93.70
19007;DHT22;9636;47.382;8.480;2023-09-08T07:45:59;28.50;93.60
19007;DHT22;9636;47.382;8.480;2023-09-08T07:48:25;28.60;93.50
19007;DHT22;9636;47.382;8.480;2023-09-08T07:50:52;28.70;93.80
19007;DHT22;9636;47.382;8.480;2023-09-08T07:53:19;28.70;93.30
19007;DHT22;9636;47.382;8.480;2023-09-08T07:55:46;28.80;93.30
19007;DHT22;9636;47.382;8.480;2023-09-08T07:58:12;28.80;93.30
19007;DHT22;9636;47.382;8.480;2023-09-08T08:00:41;29.00;93.20
19007;DHT22;9636;47.382;8.480;2023-09-08T08:03:07;29.00;93.10
19007;DHT22;9636;47.382;8.480;2023-09-08T08:05:34;29.10;93.10
19007;DHT22;9636;47.382;8.480;2023-09-08T08:08:01;29.20;93.10
19007;DHT22;9636;47.382;8.480;2023-09-08T08:10:28;29.20;93.00
19007;DHT22;9636;47.382;8.480;2023-09-08T08:12:55;29.20;92.90
19007;DHT22;9636;47.382;8.480;2023-09-08T08:15:22;29.30;92.80
19007;DHT22;9636;47.382;8.480;2023-09-08T08:17:50;29.40;93.20
19007;DHT22;9636;47.382;8.480;2023-09-08T08:20:17;29.40;92.70
19007;DHT22;9636;47.382;8.480;2023-09-08T08:22:45;29.50;92.70
19007;DHT22;9636;47.382;8.480;2023-09-08T08:25:12;29.50;92.70
19007;DHT22;9636;47.382;8.480;2023-09-08T08:27:39;29.60;92.50
19007;DHT22;9636;47.382;8.480;2023-09-08T08:30:07;29.60;92.50
19007;DHT22;9636;47.382;8.480;2023-09-08T08:32:34;29.70;92.50
19007;DHT22;9636;47.382;8.480;2023-09-08T08:35:02;29.70;92.50
19007;DHT22;9636;47.382;8.480;2023-09-08T08:37:30;29.80;92.30
19007;DHT22;9636;47.382;8.480;2023-09-08T08:39:57;29.80;92.40
19007;DHT22;9636;47.382;8.480;2023-09-08T08:42:31;29.90;92.30
19007;DHT22;9636;47.382;8.480;2023-09-08T08:44:58;30.00;92.30
19007;DHT22;9636;47.382;8.480;2023-09-08T08:47:25;30.00;92.30
19007;DHT22;9636;47.382;8.480;2023-09-08T08:49:55;30.10;92.20
19007;DHT22;9636;47.382;8.480;2023-09-08T08:52:25;30.10;92.20
19007;DHT22;9636;47.382;8.480;2023-09-08T08:54:52;30.10;92.20
19007;DHT22;9636;47.382;8.480;2023-09-08T08:57:19;30.20;92.20
19007;DHT22;9636;47.382;8.480;2023-09-08T08:59:47;30.30;92.20
19007;DHT22;9636;47.382;8.480;2023-09-08T09:02:18;30.30;92.10
19007;DHT22;9636;47.382;8.480;2023-09-08T09:04:46;30.30;92.00
19007;DHT22;9636;47.382;8.480;2023-09-08T09:07:13;30.30;91.90
19007;DHT22;9636;47.382;8.480;2023-09-08T09:09:42;30.40;92.00
19007;DHT22;9636;47.382;8.480;2023-09-08T09:12:08;30.40;92.00
19007;DHT22;9636;47.382;8.480;2023-09-08T09:14:35;30.50;92.00
19007;DHT22;9636;47.382;8.480;2023-09-08T09:17:02;30.50;92.00
19007;DHT22;9636;47.382;8.480;2023-09-08T09:19:31;30.50;92.00
19007;DHT22;9636;47.382;8.480;2023-09-08T09:21:59;30.60;92.00
19007;DHT22;9636;47.382;8.480;2023-09-08T09:24:30;30.60;91.90
19007;DHT22;9636;47.382;8.480;2023-09-08T09:26:59;30.70;91.90
19007;DHT22;9636;47.382;8.480;2023-09-08T09:29:27;30.70;91.90
19007;DHT22;9636;47.382;8.480;2023-09-08T09:31:56;30.80;91.90
19007;DHT22;9636;47.382;8.480;2023-09-08T09:34:23;30.80;91.80
19007;DHT22;9636;47.382;8.480;2023-09-08T09:36:51;30.80;91.70
19007;DHT22;9636;47.382;8.480;2023-09-08T09:39:18;30.90;91.70
19007;DHT22;9636;47.382;8.480;2023-09-08T09:41:46;30.90;91.50
19007;DHT22;9636;47.382;8.480;2023-09-08T09:44:15;31.00;91.60
19007;DHT22;9636;47.382;8.480;2023-09-08T09:46:45;31.00;91.60
19007;DHT22;9636;47.382;8.480;2023-09-08T09:49:13;31.10;91.60
19007;DHT22;9636;47.382;8.480;2023-09-08T09:51:41;31.10;91.50
19007;DHT22;9636;47.382;8.480;2023-09-08T09:54:08;31.10;91.50
19007;DHT22;9636;47.382;8.480;2023-09-08T09:56:37;31.10;91.40
19007;DHT22;9636;47.382;8.480;2023-09-08T09:59:05;31.20;91.50
19007;DHT22;9636;47.382;8.480;2023-09-08T10:01:35;31.10;91.50
19007;DHT22;9636;47.382;8.480;2023-09-08T10:04:03;31.20;91.60
19007;DHT22;9636;47.382;8.480;2023-09-08T10:06:31;31.20;91.60
19007;DHT22;9636;47.382;8.480;2023-09-08T10:08:59;31.20;91.60
19007;DHT22;9636;47.382;8.480;2023-09-08T10:11:35;31.20;91.40
19007;DHT22;9636;47.382;8.480;2023-09-08T10:14:07;31.20;91.40
19007;DHT22;9636;47.382;8.480;2023-09-08T10:16:39;31.20;91.40
19007;DHT22;9636;47.382;8.480;2023-09-08T10:19:08;31.20;91.50
19007;DHT22;9636;47.382;8.480;2023-09-08T10:21:40;31.20;91.60
19007;DHT22;9636;47.382;8.480;2023-09-08T10:24:13;31.20;91.60
19007;DHT22;9636;47.382;8.480;2023-09-08T10:26:44;31.30;91.70
19007;DHT22;9636;47.382;8.480;2023-09-08T10:29:12;31.30;91.60
19007;DHT22;9636;47.382;8.480;2023-09-08T10:31:42;31.30;91.70
19007;DHT22;9636;47.382;8.480;2023-09-08T10:34:10;31.30;91.70
19007;DHT22;9636;47.382;8.480;2023-09-08T10:36:37;31.40;91.70
19007;DHT22;9636;47.382;8.480;2023-09-08T10:39:28;31.40;91.70
19007;DHT22;9636;47.382;8.480;2023-09-08T10:42:21;31.40;91.70
19007;DHT22;9636;47.382;8.480;2023-09-08T10:44:57;31.40;91.70
19007;DHT22;9636;47.382;8.480;2023-09-08T10:47:26;31.40;91.70
19007;DHT22;9636;47.382;8.480;2023-09-08T10:49:56;31.40;91.80
19007;DHT22;9636;47.382;8.480;2023-09-08T10:52:25;31.40;91.70
19007;DHT22;9636;47.382;8.480;2023-09-08T10:54:53;31.50;91.60
19007;DHT22;9636;47.382;8.480;2023-09-08T10:57:23;31.50;91.80
19007;DHT22;9636;47.382;8.480;2023-09-08T10:59:51;31.50;91.80
19007;DHT22;9636;47.382;8.480;2023-09-08T11:02:34;31.50;91.80
19007;DHT22;9636;47.382;8.480;2023-09-08T11:05:01;31.50;91.80
19007;DHT22;9636;47.382;8.480;2023-09-08T11:07:30;31.60;91.80
19007;DHT22;9636;47.382;8.480;2023-09-08T11:09:57;31.60;91.80
19007;DHT22;9636;47.382;8.480;2023-09-08T11:12:26;31.60;91.70
19007;DHT22;9636;47.382;8.480;2023-09-08T11:14:53;31.70;91.70
19007;DHT22;9636;47.382;8.480;2023-09-08T11:17:23;31.70;91.70
19007;DHT22;9636;47.382;8.480;2023-09-08T11:19:52;31.70;91.60
19007;DHT22;9636;47.382;8.480;2023-09-08T11:22:22;31.70;91.60
19007;DHT22;9636;47.382;8.480;2023-09-08T11:24:50;31.70;91.80
19007;DHT22;9636;47.382;8.480;2023-09-08T11:27:17;31.70;91.80
19007;DHT22;9636;47.382;8.480;2023-09-08T11:29:44;31.80;91.80
19007;DHT22;9636;47.382;8.480;2023-09-08T11:32:11;31.80;91.80
19007;DHT22;9636;47.382;8.480;2023-09-08T11:34:38;31.80;91.80
19007;DHT22;9636;47.382;8.480;2023-09-08T11:37:09;31.80;91.90
19007;DHT22;9636;47.382;8.480;2023-09-08T11:39:38;31.80;91.90
19007;DHT22;9636;47.382;8.480;2023-09-08T11:42:05;31.80;91.70
19007;DHT22;9636;47.382;8.480;2023-09-08T11:44:33;31.80;91.90
19007;DHT22;9636;47.382;8.480;2023-09-08T11:47:01;31.80;91.50
19007;DHT22;9636;47.382;8.480;2023-09-08T11:49:33;31.90;91.70
19007;DHT22;9636;47.382;8.480;2023-09-08T11:52:00;31.90;91.80
19007;DHT22;9636;47.382;8.480;2023-09-08T11:54:29;31.90;91.90
19007;DHT22;9636;47.382;8.480;2023-09-08T11:56:57;31.90;92.00
19007;DHT22;9636;47.382;8.480;2023-09-08T11:59:25;31.90;92.00
19007;DHT22;9636;47.382;8.480;2023-09-08T12:01:52;31.90;92.00
19007;DHT22;9636;47.382;8.480;2023-09-08T12:04:19;31.90;91.90
19007;DHT22;9636;47.382;8.480;2023-09-08T12:06:46;31.90;91.80
19007;DHT22;9636;47.382;8.480;2023-09-08T12:09:14;31.90;91.80
19007;DHT22;9636;47.382;8.480;2023-09-08T12:11:43;31.90;91.50
19007;DHT22;9636;47.382;8.480;2023-09-08T12:14:11;32.00;91.60
19007;DHT22;9636;47.382;8.480;2023-09-08T12:16:38;32.00;91.80
19007;DHT22;9636;47.382;8.480;2023-09-08T12:19:05;32.00;91.80
19007;DHT22;9636;47.382;8.480;2023-09-08T12:21:53;32.00;91.80
19007;DHT22;9636;47.382;8.480;2023-09-08T12:24:20;32.00;91.80
19007;DHT22;9636;47.382;8.480;2023-09-08T12:27:08;32.00;91.80
19007;DHT22;9636;47.382;8.480;2023-09-08T12:29:35;32.00;91.80
19007;DHT22;9636;47.382;8.480;2023-09-08T12:32:02;32.00;91.80
19007;DHT22;9636;47.382;8.480;2023-09-08T12:34:29;32.10;92.00
19007;DHT22;9636;47.382;8.480;2023-09-08T12:36:57;32.10;92.00
19007;DHT22;9636;47.382;8.480;2023-09-08T12:39:24;32.10;91.80
19007;DHT22;9636;47.382;8.480;2023-09-08T12:41:50;32.10;91.80
19007;DHT22;9636;47.382;8.480;2023-09-08T12:44:19;32.10;91.90
19007;DHT22;9636;47.382;8.480;2023-09-08T12:46:46;32.10;92.00
19007;DHT22;9636;47.382;8.480;2023-09-08T12:49:13;32.10;91.80
19007;DHT22;9636;47.382;8.480;2023-09-08T12:51:39;32.10;91.90
19007;DHT22;9636;47.382;8.480;2023-09-08T12:54:07;32.20;91.80
19007;DHT22;9636;47.382;8.480;2023-09-08T12:56:34;32.20;91.90
19007;DHT22;9636;47.382;8.480;2023-09-08T12:59:00;32.20;92.00
19007;DHT22;9636;47.382;8.480;2023-09-08T13:01:29;32.20;92.10
19007;DHT22;9636;47.382;8.480;2023-09-08T13:03:55;32.20;92.10
19007;DHT22;9636;47.382;8.480;2023-09-08T13:06:22;32.20;92.00
19007;DHT22;9636;47.382;8.480;2023-09-08T13:08:49;32.20;92.10
19007;DHT22;9636;47.382;8.480;2023-09-08T13:11:16;32.20;91.90
19007;DHT22;9636;47.382;8.480;2023-09-08T13:13:42;32.20;92.00
19007;DHT22;9636;47.382;8.480;2023-09-08T13:16:09;32.20;92.10
19007;DHT22;9636;47.382;8.480;2023-09-08T13:18:37;32.20;92.10
19007;DHT22;9636;47.382;8.480;2023-09-08T13:21:06;32.20;92.10
19007;DHT22;9636;47.382;8.480;2023-09-08T13:23:33;32.20;91.90
19007;DHT22;9636;47.382;8.480;2023-09-08T13:26:00;32.30;92.00
19007;DHT22;9636;47.382;8.480;2023-09-08T13:28:26;32.30;92.00
19007;DHT22;9636;47.382;8.480;2023-09-08T13:30:53;32.30;92.00
19007;DHT22;9636;47.382;8.480;2023-09-08T13:33:20;32.30;92.00
19007;DHT22;9636;47.382;8.480;2023-09-08T13:35:49;32.30;92.00
19007;DHT22;9636;47.382;8.480;2023-09-08T13:38:16;32.20;92.00
19007;DHT22;9636;47.382;8.480;2023-09-08T13:40:42;32.20;91.90
19007;DHT22;9636;47.382;8.480;2023-09-08T13:43:09;32.20;92.00
19007;DHT22;9636;47.382;8.480;2023-09-08T13:45:37;32.20;92.00
19007;DHT22;9636;47.382;8.480;2023-09-08T13:48:04;32.20;92.10
19007;DHT22;9636;47.382;8.480;2023-09-08T13:50:31;32.30;92.10
19007;DHT22;9636;47.382;8.480;2023-09-08T13:52:59;32.70;91.60
19007;DHT22;9636;47.382;8.480;2023-09-08T13:55:26;32.70;91.60
19007;DHT22;9636;47.382;8.480;2023-09-08T13:57:53;32.50;91.60
19007;DHT22;9636;47.382;8.480;2023-09-08T14:00:20;32.40;91.80
19007;DHT22;9636;47.382;8.480;2023-09-08T14:02:47;32.40;92.00
19007;DHT22;9636;47.382;8.480;2023-09-08T14:05:14;32.40;92.00
19007;DHT22;9636;47.382;8.480;2023-09-08T14:07:40;32.40;92.20
19007;DHT22;9636;47.382;8.480;2023-09-08T14:10:09;32.30;92.20
19007;DHT22;9636;47.382;8.480;2023-09-08T14:12:36;32.30;92.20
19007;DHT22;9636;47.382;8.480;2023-09-08T14:15:03;32.30;92.30
19007;DHT22;9636;47.382;8.480;2023-09-08T14:17:30;32.30;92.30
19007;DHT22;9636;47.382;8.480;2023-09-08T14:19:57;32.30;92.30
19007;DHT22;9636;47.382;8.480;2023-09-08T14:22:24;32.20;92.30
19007;DHT22;9636;47.382;8.480;2023-09-08T14:24:52;32.20;92.30
19007;DHT22;9636;47.382;8.480;2023-09-08T14:27:20;32.20;92.40
19007;DHT22;9636;47.382;8.480;2023-09-08T14:29:47;32.20;92.40
19007;DHT22;9636;47.382;8.480;2023-09-08T14:32:13;32.20;92.40
19007;DHT22;9636;47.382;8.480;2023-09-08T14:34:40;32.20;92.40
19007;DHT22;9636;47.382;8.480;2023-09-08T14:37:07;32.20;92.50
19007;DHT22;9636;47.382;8.480;2023-09-08T14:39:34;32.20;92.50
19007;DHT22;9636;47.382;8.480;2023-09-08T14:42:01;32.20;92.50
19007;DHT22;9636;47.382;8.480;2023-09-08T14:44:29;32.20;92.50
19007;DHT22;9636;47.382;8.480;2023-09-08T14:46:56;32.20;92.60
19007;DHT22;9636;47.382;8.480;2023-09-08T14:49:22;32.20;92.60
19007;DHT22;9636;47.382;8.480;2023-09-08T14:51:49;32.20;92.60
19007;DHT22;9636;47.382;8.480;2023-09-08T14:54:16;32.20;92.60
19007;DHT22;9636;47.382;8.480;2023-09-08T14:56:43;32.10;92.60
19007;DHT22;9636;47.382;8.480;2023-09-08T14:59:10;32.10;92.60
19007;DHT22;9636;47.382;8.480;2023-09-08T15:01:38;32.10;92.60
19007;DHT22;9636;47.382;8.480;2023-09-08T15:04:06;32.10;92.70
19007;DHT22;9636;47.382;8.480;2023-09-08T15:06:33;32.10;92.70
19007;DHT22;9636;47.382;8.480;2023-09-08T15:08:59;32.10;92.70
19007;DHT22;9636;47.382;8.480;2023-09-08T15:11:26;32.10;92.70
19007;DHT22;9636;47.382;8.480;2023-09-08T15:13:53;32.10;92.30
19007;DHT22;9636;47.382;8.480;2023-09-08T15:16:20;32.20;92.60
19007;DHT22;9636;47.382;8.480;2023-09-08T15:18:49;32.20;92.60
19007;DHT22;9636;47.382;8.480;2023-09-08T15:21:16;32.20;92.60
19007;DHT22;9636;47.382;8.480;2023-09-08T15:23:44;32.20;92.60
19007;DHT22;9636;47.382;8.480;2023-09-08T15:26:11;32.20;92.50
19007;DHT22;9636;47.382;8.480;2023-09-08T15:28:37;32.20;92.50
19007;DHT22;9636;47.382;8.480;2023-09-08T15:31:04;32.20;92.40
19007;DHT22;9636;47.382;8.480;2023-09-08T15:33:32;32.20;92.50
19007;DHT22;9636;47.382;8.480;2023-09-08T15:36:00;32.20;92.50
19007;DHT22;9636;47.382;8.480;2023-09-08T15:38:26;32.20;92.50
19007;DHT22;9636;47.382;8.480;2023-09-08T15:41:15;32.20;92.50
19007;DHT22;9636;47.382;8.480;2023-09-08T15:43:47;32.20;92.50
19007;DHT22;9636;47.382;8.480;2023-09-08T15:46:14;32.20;92.60
19007;DHT22;9636;47.382;8.480;2023-09-08T15:48:41;32.20;92.60
19007;DHT22;9636;47.382;8.480;2023-09-08T15:51:09;32.20;92.60